createdAt,value
2019-03-24T00:04:02.631Z,6.58
2019-03-24T00:09:07.562Z,6.40
2019-03-24T00:14:12.136Z,6.26
2019-03-24T00:19:17.046Z,6.06
2019-03-24T00:24:21.631Z,6.07
2019-03-24T00:29:26.778Z,5.98
2019-03-24T00:34:31.677Z,5.92
2019-03-24T00:39:37.219Z,5.78
2019-03-24T00:44:41.826Z,5.64
2019-03-24T00:49:46.712Z,5.65
2019-03-24T00:54:51.347Z,5.59
2019-03-24T00:59:56.226Z,5.73
2019-03-24T01:05:06.000Z,5.77
2019-03-24T01:10:10.752Z,5.85
2019-03-24T01:15:15.332Z,5.89
2019-03-24T01:20:20.314Z,5.79
2019-03-24T01:25:24.900Z,5.77
2019-03-24T01:30:29.490Z,5.72
2019-03-24T01:35:34.141Z,5.79
2019-03-24T01:40:38.812Z,5.83
2019-03-24T01:45:43.744Z,5.85
2019-03-24T01:50:48.535Z,5.90
2019-03-24T01:55:53.399Z,5.72
2019-03-24T02:00:58.043Z,5.61
2019-03-24T02:06:06.213Z,5.47
2019-03-24T02:11:10.823Z,5.42
2019-03-24T02:16:15.392Z,5.27
2019-03-24T02:21:20.335Z,5.17
2019-03-24T02:26:24.941Z,5.07
2019-03-24T02:31:29.554Z,4.84
2019-03-24T02:36:34.297Z,4.75
2019-03-24T02:41:38.873Z,4.61
2019-03-24T02:46:43.727Z,4.39
2019-03-24T02:51:48.347Z,4.30
2019-03-24T02:56:52.882Z,4.27
2019-03-24T03:01:57.502Z,4.30
2019-03-24T03:07:05.351Z,4.21
2019-03-24T03:12:09.881Z,4.16
2019-03-24T03:17:14.508Z,4.20
2019-03-24T03:22:19.260Z,4.08
2019-03-24T03:27:23.824Z,3.89
2019-03-24T03:32:28.403Z,3.63
2019-03-24T03:37:33.294Z,3.49
2019-03-24T03:42:38.211Z,3.37
2019-03-24T03:47:43.024Z,3.10
2019-03-24T03:52:47.729Z,3.09
2019-03-24T03:57:52.372Z,3.06
2019-03-24T04:02:57.290Z,3.23
2019-03-24T04:08:05.088Z,3.38
2019-03-24T04:13:09.631Z,3.24
2019-03-24T04:18:16.596Z,2.98
2019-03-24T04:23:21.244Z,2.80
2019-03-24T04:28:26.394Z,2.58
2019-03-24T04:33:31.245Z,2.30
2019-03-24T04:38:35.837Z,2.54
2019-03-24T04:43:40.400Z,2.51
2019-03-24T04:48:45.324Z,2.76
2019-03-24T04:53:50.244Z,3.16
2019-03-24T04:58:54.823Z,3.41
2019-03-24T05:03:59.399Z,3.53
2019-03-24T05:09:04.640Z,3.62
2019-03-24T05:14:10.136Z,3.65
2019-03-24T05:19:15.020Z,3.65
2019-03-24T05:24:19.610Z,3.64
2019-03-24T05:29:24.224Z,3.71
2019-03-24T05:34:28.794Z,3.82
2019-03-24T05:39:33.349Z,3.95
2019-03-24T05:44:38.047Z,4.08
2019-03-24T05:49:42.679Z,4.06
2019-03-24T05:54:47.581Z,4.35
2019-03-24T05:59:52.178Z,4.62
2019-03-24T06:04:57.059Z,4.71
2019-03-24T06:10:01.633Z,4.74
2019-03-24T06:15:07.220Z,5.01
2019-03-24T06:20:12.021Z,4.98
2019-03-24T06:25:16.687Z,5.05
2019-03-24T06:30:22.907Z,5.08
2019-03-24T06:35:27.451Z,5.23
2019-03-24T06:40:32.068Z,5.26
2019-03-24T06:45:36.653Z,5.56
2019-03-24T06:50:41.276Z,5.72
2019-03-24T06:55:46.403Z,5.72
2019-03-24T07:00:54.957Z,5.81
2019-03-24T07:05:59.932Z,5.81
2019-03-24T07:11:11.413Z,6.14
2019-03-24T07:16:10.813Z,6.91
2019-03-24T07:21:15.511Z,8.24
2019-03-24T07:26:20.148Z,8.68
2019-03-24T07:31:24.711Z,9.15
2019-03-24T07:36:29.331Z,9.43
2019-03-24T07:41:33.888Z,9.30
2019-03-24T07:46:38.515Z,9.36
2019-03-24T07:51:43.263Z,8.97
2019-03-24T07:56:47.816Z,8.97
2019-03-24T08:01:52.383Z,8.77
2019-03-24T08:06:58.645Z,9.00
2019-03-24T08:12:03.331Z,9.37
2019-03-24T08:17:07.895Z,9.22
2019-03-24T08:22:13.311Z,9.35
2019-03-24T08:27:17.966Z,9.51
2019-03-24T08:32:22.552Z,10.13
2019-03-24T08:37:27.113Z,10.63
2019-03-24T08:42:31.962Z,11.46
2019-03-24T08:47:36.864Z,11.45
2019-03-24T08:52:41.443Z,11.82
2019-03-24T08:57:46.313Z,11.61
2019-03-24T09:02:51.852Z,11.53
2019-03-24T09:07:57.062Z,11.88
2019-03-24T09:13:01.797Z,11.36
2019-03-24T09:18:06.505Z,11.45
2019-03-24T09:23:11.515Z,11.50
2019-03-24T09:28:17.427Z,11.47
2019-03-24T09:33:22.098Z,11.76
2019-03-24T09:38:26.722Z,12.35
2019-03-24T09:43:31.309Z,13.16
2019-03-24T09:48:35.901Z,12.61
2019-03-24T09:53:41.741Z,11.54
2019-03-24T09:58:46.411Z,12.61
2019-03-24T10:03:51.428Z,14.82
2019-03-24T10:08:56.054Z,16.66
2019-03-24T10:14:00.620Z,17.69
2019-03-24T10:19:13.526Z,15.49
2019-03-24T10:24:11.547Z,15.14
2019-03-24T10:29:16.487Z,14.50
2019-03-24T10:34:21.414Z,14.33
2019-03-24T10:39:26.083Z,13.88
2019-03-24T10:44:30.790Z,13.56
2019-03-24T10:49:35.970Z,12.77
2019-03-24T10:54:40.566Z,12.75
2019-03-24T10:59:45.234Z,13.27
2019-03-24T11:04:49.900Z,14.44
2019-03-24T11:09:54.486Z,15.70
2019-03-24T11:14:59.443Z,16.06
2019-03-24T11:20:04.706Z,16.66
2019-03-24T11:25:10.028Z,16.01
2019-03-24T11:30:15.121Z,16.09
2019-03-24T11:35:19.809Z,16.03
2019-03-24T11:40:24.857Z,16.38
2019-03-24T11:45:32.417Z,16.77
2019-03-24T11:50:37.371Z,16.98
2019-03-24T11:55:42.005Z,17.68
2019-03-24T12:00:48.493Z,17.06
2019-03-24T12:05:53.153Z,17.28
2019-03-24T12:10:57.786Z,17.07
2019-03-24T12:16:02.458Z,17.35
2019-03-24T12:21:07.120Z,14.90
2019-03-24T12:26:11.710Z,15.21
2019-03-24T12:31:16.278Z,15.57
2019-03-24T12:36:21.205Z,15.25
2019-03-24T12:41:25.919Z,15.62
2019-03-24T12:46:30.500Z,15.40
2019-03-24T12:51:35.636Z,14.64
2019-03-24T12:56:40.928Z,15.46
2019-03-24T13:01:55.497Z,16.02
2019-03-24T13:07:00.369Z,15.15
2019-03-24T13:12:25.157Z,15.74
2019-03-24T13:17:30.100Z,15.75
2019-03-24T13:22:35.355Z,16.10
2019-03-24T13:27:40.055Z,16.11
2019-03-24T13:32:44.840Z,15.09
2019-03-24T13:37:49.590Z,14.57
2019-03-24T13:42:54.179Z,15.03
2019-03-24T13:47:58.887Z,14.14
2019-03-24T13:53:04.367Z,13.63
2019-03-24T13:58:09.051Z,13.26
2019-03-24T14:03:13.739Z,13.14
2019-03-24T14:08:18.762Z,12.83
2019-03-24T14:13:23.782Z,13.13
2019-03-24T14:18:28.475Z,12.75
2019-03-24T14:23:33.079Z,12.32
2019-03-24T14:28:37.680Z,12.10
2019-03-24T14:33:43.018Z,11.80
2019-03-24T14:38:49.271Z,12.17
2019-03-24T14:43:54.045Z,11.94
2019-03-24T14:48:59.161Z,11.68
2019-03-24T14:54:03.818Z,11.68
2019-03-24T14:59:08.615Z,11.26
2019-03-24T15:04:13.335Z,11.02
2019-03-24T15:09:18.258Z,10.85
2019-03-24T15:14:22.888Z,10.83
2019-03-24T15:19:27.510Z,10.81
2019-03-24T15:24:32.309Z,10.75
2019-03-24T15:29:37.038Z,10.74
2019-03-24T15:34:41.801Z,10.73
2019-03-24T15:39:46.491Z,10.73
2019-03-24T15:44:51.081Z,10.52
2019-03-24T15:49:55.719Z,10.51
2019-03-24T15:55:00.304Z,10.48
2019-03-24T16:00:06.115Z,10.27
2019-03-24T16:05:10.757Z,10.32
2019-03-24T16:10:15.376Z,10.27
2019-03-24T16:15:19.941Z,10.19
2019-03-24T16:20:24.586Z,10.15
2019-03-24T16:25:29.244Z,10.00
2019-03-24T16:30:33.955Z,9.89
2019-03-24T16:35:38.541Z,9.69
2019-03-24T16:40:43.215Z,9.61
2019-03-24T16:45:48.519Z,9.69
2019-03-24T16:50:53.308Z,9.71
2019-03-24T16:55:57.883Z,9.72
2019-03-24T17:01:02.632Z,9.42
2019-03-24T17:06:07.228Z,9.27
2019-03-24T17:11:11.834Z,9.08
2019-03-24T17:16:16.771Z,8.88
2019-03-24T17:21:21.364Z,8.56
2019-03-24T17:26:26.106Z,8.31
2019-03-24T17:31:30.739Z,8.10
2019-03-24T17:36:35.378Z,7.97
2019-03-24T17:41:40.042Z,7.77
2019-03-24T17:46:45.043Z,7.61
2019-03-24T17:52:00.245Z,7.42
2019-03-24T17:56:56.083Z,7.28
2019-03-24T18:02:00.654Z,7.13
2019-03-24T18:07:05.258Z,6.92
2019-03-24T18:12:09.851Z,6.42
2019-03-24T18:17:14.560Z,6.20
2019-03-24T18:22:19.547Z,5.84
2019-03-24T18:27:24.162Z,5.49
2019-03-24T18:32:28.818Z,5.26
2019-03-24T18:37:33.611Z,4.98
2019-03-24T18:42:38.342Z,4.80
2019-03-24T18:47:42.962Z,4.68
2019-03-24T18:52:50.067Z,4.48
2019-03-24T18:57:54.239Z,4.34
2019-03-24T19:02:58.887Z,4.09
2019-03-24T19:08:03.764Z,3.77
2019-03-24T19:13:08.427Z,3.60
2019-03-24T19:18:15.061Z,3.39
2019-03-24T19:23:19.718Z,3.32
2019-03-24T19:28:24.401Z,3.20
2019-03-24T19:33:29.764Z,2.89
2019-03-24T19:38:34.672Z,2.68
2019-03-24T19:43:39.900Z,2.54
2019-03-24T19:48:44.519Z,2.40
2019-03-24T19:53:49.120Z,2.20
2019-03-24T19:58:53.830Z,2.12
2019-03-24T20:03:58.405Z,2.01
2019-03-24T20:09:04.558Z,1.97
2019-03-24T20:14:09.481Z,1.92
2019-03-24T20:19:14.410Z,1.71
2019-03-24T20:24:19.036Z,1.61
2019-03-24T20:29:23.617Z,1.45
2019-03-24T20:34:28.212Z,1.40
2019-03-24T20:39:32.859Z,1.31
2019-03-24T20:44:37.493Z,1.14
2019-03-24T20:49:42.145Z,1.04
2019-03-24T20:54:46.929Z,0.95
2019-03-24T20:59:52.162Z,0.87
2019-03-24T21:04:56.906Z,0.80
2019-03-24T21:10:01.819Z,0.73
2019-03-24T21:15:06.838Z,0.75
2019-03-24T21:20:11.515Z,0.71
2019-03-24T21:25:16.060Z,0.60
2019-03-24T21:30:32.550Z,0.46
2019-03-24T21:35:37.588Z,0.32
2019-03-24T21:40:42.192Z,0.23
2019-03-24T21:45:46.821Z,0.15
2019-03-24T21:50:51.373Z,0.10
2019-03-24T21:55:56.318Z,0.13
2019-03-24T22:01:01.005Z,0.21
2019-03-24T22:06:05.687Z,0.21
2019-03-24T22:11:10.640Z,0.13
2019-03-24T22:16:15.411Z,-0.01
2019-03-24T22:21:20.004Z,-0.09
2019-03-24T22:26:24.703Z,-0.16
2019-03-24T22:31:29.315Z,-0.27
2019-03-24T22:36:34.185Z,-0.23
2019-03-24T22:41:38.783Z,-0.30
2019-03-24T22:46:43.369Z,-0.34
2019-03-24T22:51:49.103Z,-0.42
2019-03-24T22:56:53.709Z,-0.46
2019-03-24T23:01:58.317Z,-0.53
2019-03-24T23:07:02.923Z,-0.59
2019-03-24T23:12:07.503Z,-0.64
2019-03-24T23:17:12.097Z,-0.60
2019-03-24T23:22:16.671Z,-0.46
2019-03-24T23:27:21.253Z,-0.40
2019-03-24T23:32:25.843Z,-0.45
2019-03-24T23:37:30.472Z,-0.49
2019-03-24T23:42:35.086Z,-0.44
2019-03-24T23:47:39.688Z,-0.26
2019-03-24T23:52:44.301Z,-0.06
2019-03-24T23:57:48.878Z,-0.03
